Eurocargo Roma — IBAV — position and weather

sailwx.info

Track history (hours):
 
Tides and Currents Weather Stations Pressure Air Temp Water Temp Dewpoint Dewpoint Depression Visibility Wind Speed Wind Dir Waves Ship Positions

Eurocargo Roma

Last reported at 2018-Jun-22 14:57 UTC. Time now 2018-Jun-23 16:11 UTC.
Position N 39°28' E 003°42'.

Length 200 m; draft 7.5 m.

Type: Cargo ship. MMSI: 247241900.

Date/timePositionNaut miles runAvg speedWind from/ knotsBaromVisibWave heightAir tempDewpointWater temp
2018-Jun-22 14:57N 39°28' E 003°42'920.1
2018-Jun-22 14:29N 39°23' E 003°32'1620.3
2018-Jun-22 13:42N 39°14' E 003°14'420.6
2018-Jun-22 13:30N 39°11' E 003°10'1020.4
2018-Jun-22 13:00N 39°06' E 002°59'1019.2
2018-Jun-22 12:30N 39°05' E 002°47'1020.4
2018-Jun-22 12:01N 39°07' E 002°34'1020.4
2018-Jun-22 11:30N 39°10' E 002°21'1120.5
2018-Jun-22 10:59N 39°12' E 002°08'10220.5
2018-Jun-22 06:03N 39°34' W 000°01'120.2
2018-Jun-22 06:00N 39°34' W 000°02'916.2
2018-Jun-22 05:26N 39°38' W 000°13'1 0.1
2018-Jun-21 17:18N 39°38' W 000°13'0 0.1
2018-Jun-21 16:56N 39°38' W 000°13'2 4.2
2018-Jun-21 16:29N 39°37' W 000°12'1 2.0
2018-Jun-21 16:00N 39°36' W 000°12'4 7.8
2018-Jun-21 15:30N 39°34' W 000°08'816.8
2018-Jun-21 15:00N 39°32' E 000°03'9220.1
2018-Jun-21 10:25N 39°13' E 002°00'1019.6
2018-Jun-21 09:53N 39°11' E 002°13'819.8
2018-Jun-21 09:30N 39°09' E 002°23'1020.0
2018-Jun-21 09:00N 39°07' E 002°35'1020.0
2018-Jun-21 08:30N 39°05' E 002°48'1020.0
2018-Jun-21 08:00N 39°05' E 003°01'1119.7
2018-Jun-21 07:27N 39°04' E 003°14'919.6
2018-Jun-21 06:59N 39°03' E 003°26'1219.8
2018-Jun-21 06:24N 39°02' E 003°41'819.6
2018-Jun-21 06:00N 39°02' E 003°51'33113.1
2018-Jun-20 04:42N 39°25' E 010°57'619.9
2018-Jun-20 04:23N 39°28' E 011°05'920.0
2018-Jun-20 03:57N 39°31' E 011°16'1120.0
2018-Jun-20 03:23N 39°35' E 011°29'820.8
2018-Jun-20 03:00N 39°38' E 011°39'6821.6
2018-Jun-19 23:52N 40°05' E 012°60'822.0
2018-Jun-19 23:30N 40°08' E 013°09'1321.9
2018-Jun-19 22:56N 40°12' E 013°25'2121.9
2018-Jun-19 21:57N 40°20' E 013°51'1021.9
2018-Jun-19 21:31N 40°23' E 014°03'1221.9
2018-Jun-19 20:59N 40°27' E 014°17'1021.9
2018-Jun-19 20:30N 40°31' E 014°30'10 0.7
2018-Jun-19 06:12N 40°37' E 014°41'317.4
2018-Jun-19 06:01N 40°35' E 014°37'1020.1
2018-Jun-19 05:31N 40°32' E 014°25'1020.5
2018-Jun-19 05:00N 40°27' E 014°13'1020.5
2018-Jun-19 04:30N 40°23' E 013°60'1020.6
2018-Jun-19 03:59N 40°19' E 013°47'2520.6
2018-Jun-19 02:48N 40°10' E 013°18'1120.8
2018-Jun-19 02:15N 40°05' E 013°04'821.0
2018-Jun-19 01:53N 40°02' E 012°55'1420.7
2018-Jun-19 01:12N 39°56' E 012°38'521.0
2018-Jun-19 00:57N 39°54' E 012°32'1021.2
2018-Jun-19 00:30N 39°52' E 012°20'1021.1
2018-Jun-19 00:00N 39°48' E 012°07'40515.0
2018-Jun-17 21:04N 39°03' E 003°27'720.8
2018-Jun-17 20:43N 39°04' E 003°17'521.0
2018-Jun-17 20:29N 39°04' E 003°11'1121.0
2018-Jun-17 19:59N 39°05' E 002°57'1021.1
2018-Jun-17 19:30N 39°07' E 002°44'1021.0
2018-Jun-17 19:00N 39°08' E 002°31'1020.9
2018-Jun-17 18:30N 39°10' E 002°18'3021.0
2018-Jun-17 17:06N 39°16' E 001°40'220.7
2018-Jun-17 17:00N 39°16' E 001°38'8420.7
2018-Jun-17 12:56N 39°35' W 000°09'5 0.6
2018-Jun-17 04:41N 39°38' W 000°13'0 0.0
2018-Jun-16 17:25N 39°38' W 000°13'3 6.4
2018-Jun-16 16:57N 39°36' W 000°11'5519.7
2018-Jun-16 14:08N 39°23' E 000°58'320.6
2018-Jun-16 14:00N 39°22' E 001°02'1120.6
2018-Jun-16 13:27N 39°20' E 001°16'920.6
2018-Jun-16 13:00N 39°18' E 001°28'2820.4
2018-Jun-16 11:38N 39°13' E 002°03'1020.5
2018-Jun-16 11:10N 39°11' E 002°15'420.6
2018-Jun-16 11:00N 39°10' E 002°20'1020.6
2018-Jun-16 10:29N 39°08' E 002°33'1020.3
2018-Jun-16 10:00N 39°06' E 002°46'1020.3
2018-Jun-16 09:30N 39°04' E 002°58'1120.4
2018-Jun-16 08:59N 39°03' E 003°12'49819.1
2018-Jun-15 06:51N 40°21' E 013°52'720.0
2018-Jun-15 06:30N 40°24' E 014°01'1119.8
2018-Jun-15 05:58N 40°28' E 014°13'920.0
2018-Jun-15 05:30N 40°32' E 014°25'1020.2
2018-Jun-15 05:00N 40°35' E 014°37'3 0.4
2018-Jun-14 21:21N 40°37' E 014°41'618.8
2018-Jun-14 21:01N 40°35' E 014°33'1020.1
2018-Jun-14 20:31N 40°32' E 014°20'918.9
2018-Jun-14 20:01N 40°32' E 014°08'1020.4
2018-Jun-14 19:31N 40°37' E 013°56'1020.7
2018-Jun-14 19:00N 40°43' E 013°45'1121.0
2018-Jun-14 18:30N 40°50' E 013°34'47913.4
2018-Jun-13 06:42N 39°02' E 003°25'521.0
2018-Jun-13 06:29N 39°03' E 003°20'1020.9
2018-Jun-13 06:00N 39°04' E 003°06'1020.7
2018-Jun-13 05:29N 39°04' E 002°53'1021.1
2018-Jun-13 05:00N 39°07' E 002°40'1021.0
2018-Jun-13 04:30N 39°09' E 002°27'10521.0
2018-Jun-12 23:30N 39°28' E 000°13'1220.8
2018-Jun-12 22:54N 39°32' W 000°02'819.7
2018-Jun-12 22:30N 39°35' W 000°11'4 5.9
2018-Jun-12 21:53N 39°38' W 000°13'0 0.0
2018-Jun-12 21:29N 39°38' W 000°13'0 0.0
2018-Jun-12 20:59N 39°38' W 000°13'0 0.0
2018-Jun-12 20:29N 39°38' W 000°13'0 0.0
2018-Jun-12 19:59N 39°38' W 000°13'  
Track history (hours):
 
Tides and Currents Weather Stations Pressure Air Temp Water Temp Dewpoint Dewpoint Depression Visibility Wind Speed Wind Dir Waves Ship Positions

Eurocargo Roma

Last reported at 2018-Jun-22 14:57 UTC. Time now 2018-Jun-23 16:11 UTC.
Position N 39°28' E 003°42'.

Length 200 m; draft 7.5 m.

Type: Cargo ship. MMSI: 247241900.

Date/timePositionNaut miles runAvg speedWind from/ knotsBaromVisibWave heightAir tempDewpointWater temp
2018-Jun-22 14:57N 39°28' E 003°42'920.1
2018-Jun-22 14:29N 39°23' E 003°32'1620.3
2018-Jun-22 13:42N 39°14' E 003°14'420.6
2018-Jun-22 13:30N 39°11' E 003°10'1020.4
2018-Jun-22 13:00N 39°06' E 002°59'1019.2
2018-Jun-22 12:30N 39°05' E 002°47'1020.4
2018-Jun-22 12:01N 39°07' E 002°34'1020.4
2018-Jun-22 11:30N 39°10' E 002°21'1120.5
2018-Jun-22 10:59N 39°12' E 002°08'10220.5
2018-Jun-22 06:03N 39°34' W 000°01'120.2
2018-Jun-22 06:00N 39°34' W 000°02'916.2
2018-Jun-22 05:26N 39°38' W 000°13'1 0.1
2018-Jun-21 17:18N 39°38' W 000°13'0 0.1
2018-Jun-21 16:56N 39°38' W 000°13'2 4.2
2018-Jun-21 16:29N 39°37' W 000°12'1 2.0
2018-Jun-21 16:00N 39°36' W 000°12'4 7.8
2018-Jun-21 15:30N 39°34' W 000°08'816.8
2018-Jun-21 15:00N 39°32' E 000°03'9220.1
2018-Jun-21 10:25N 39°13' E 002°00'1019.6
2018-Jun-21 09:53N 39°11' E 002°13'819.8
2018-Jun-21 09:30N 39°09' E 002°23'1020.0
2018-Jun-21 09:00N 39°07' E 002°35'1020.0
2018-Jun-21 08:30N 39°05' E 002°48'1020.0
2018-Jun-21 08:00N 39°05' E 003°01'1119.7
2018-Jun-21 07:27N 39°04' E 003°14'919.6
2018-Jun-21 06:59N 39°03' E 003°26'1219.8
2018-Jun-21 06:24N 39°02' E 003°41'819.6
2018-Jun-21 06:00N 39°02' E 003°51'33113.1
2018-Jun-20 04:42N 39°25' E 010°57'619.9
2018-Jun-20 04:23N 39°28' E 011°05'920.0
2018-Jun-20 03:57N 39°31' E 011°16'1120.0
2018-Jun-20 03:23N 39°35' E 011°29'820.8
2018-Jun-20 03:00N 39°38' E 011°39'6821.6
2018-Jun-19 23:52N 40°05' E 012°60'822.0
2018-Jun-19 23:30N 40°08' E 013°09'1321.9
2018-Jun-19 22:56N 40°12' E 013°25'2121.9
2018-Jun-19 21:57N 40°20' E 013°51'1021.9
2018-Jun-19 21:31N 40°23' E 014°03'1221.9
2018-Jun-19 20:59N 40°27' E 014°17'1021.9
2018-Jun-19 20:30N 40°31' E 014°30'10 0.7
2018-Jun-19 06:12N 40°37' E 014°41'317.4
2018-Jun-19 06:01N 40°35' E 014°37'1020.1
2018-Jun-19 05:31N 40°32' E 014°25'1020.5
2018-Jun-19 05:00N 40°27' E 014°13'1020.5
2018-Jun-19 04:30N 40°23' E 013°60'1020.6
2018-Jun-19 03:59N 40°19' E 013°47'2520.6
2018-Jun-19 02:48N 40°10' E 013°18'1120.8
2018-Jun-19 02:15N 40°05' E 013°04'821.0
2018-Jun-19 01:53N 40°02' E 012°55'1420.7
2018-Jun-19 01:12N 39°56' E 012°38'521.0
2018-Jun-19 00:57N 39°54' E 012°32'1021.2
2018-Jun-19 00:30N 39°52' E 012°20'1021.1
2018-Jun-19 00:00N 39°48' E 012°07'40515.0
2018-Jun-17 21:04N 39°03' E 003°27'720.8
2018-Jun-17 20:43N 39°04' E 003°17'521.0
2018-Jun-17 20:29N 39°04' E 003°11'1121.0
2018-Jun-17 19:59N 39°05' E 002°57'1021.1
2018-Jun-17 19:30N 39°07' E 002°44'1021.0
2018-Jun-17 19:00N 39°08' E 002°31'1020.9
2018-Jun-17 18:30N 39°10' E 002°18'3021.0
2018-Jun-17 17:06N 39°16' E 001°40'220.7
2018-Jun-17 17:00N 39°16' E 001°38'8420.7
2018-Jun-17 12:56N 39°35' W 000°09'5 0.6
2018-Jun-17 04:41N 39°38' W 000°13'0 0.0
2018-Jun-16 17:25N 39°38' W 000°13'3 6.4
2018-Jun-16 16:57N 39°36' W 000°11'5519.7
2018-Jun-16 14:08N 39°23' E 000°58'320.6
2018-Jun-16 14:00N 39°22' E 001°02'1120.6
2018-Jun-16 13:27N 39°20' E 001°16'920.6
2018-Jun-16 13:00N 39°18' E 001°28'2820.4
2018-Jun-16 11:38N 39°13' E 002°03'1020.5
2018-Jun-16 11:10N 39°11' E 002°15'420.6
2018-Jun-16 11:00N 39°10' E 002°20'1020.6
2018-Jun-16 10:29N 39°08' E 002°33'1020.3
2018-Jun-16 10:00N 39°06' E 002°46'1020.3
2018-Jun-16 09:30N 39°04' E 002°58'1120.4
2018-Jun-16 08:59N 39°03' E 003°12'49819.1
2018-Jun-15 06:51N 40°21' E 013°52'720.0
2018-Jun-15 06:30N 40°24' E 014°01'1119.8
2018-Jun-15 05:58N 40°28' E 014°13'920.0
2018-Jun-15 05:30N 40°32' E 014°25'1020.2
2018-Jun-15 05:00N 40°35' E 014°37'3 0.4
2018-Jun-14 21:21N 40°37' E 014°41'618.8
2018-Jun-14 21:01N 40°35' E 014°33'1020.1
2018-Jun-14 20:31N 40°32' E 014°20'918.9
2018-Jun-14 20:01N 40°32' E 014°08'1020.4
2018-Jun-14 19:31N 40°37' E 013°56'1020.7
2018-Jun-14 19:00N 40°43' E 013°45'1121.0
2018-Jun-14 18:30N 40°50' E 013°34'47913.4
2018-Jun-13 06:42N 39°02' E 003°25'521.0
2018-Jun-13 06:29N 39°03' E 003°20'1020.9
2018-Jun-13 06:00N 39°04' E 003°06'1020.7
2018-Jun-13 05:29N 39°04' E 002°53'1021.1
2018-Jun-13 05:00N 39°07' E 002°40'1021.0
2018-Jun-13 04:30N 39°09' E 002°27'10521.0
2018-Jun-12 23:30N 39°28' E 000°13'1220.8
2018-Jun-12 22:54N 39°32' W 000°02'819.7
2018-Jun-12 22:30N 39°35' W 000°11'4 5.9
2018-Jun-12 21:53N 39°38' W 000°13'0 0.0
2018-Jun-12 21:29N 39°38' W 000°13'0 0.0
2018-Jun-12 20:59N 39°38' W 000°13'0 0.0
2018-Jun-12 20:29N 39°38' W 000°13'0 0.0
2018-Jun-12 19:59N 39°38' W 000°13'  

Dump ship's entire track history